sensor_id;sensor_type;location;lat;lon;timestamp;pressure;altitude;pressure_sealevel;temperature
71564;BMP180;59391;52.504;13.438;2023-12-20T00:02:17;100505.00;;;10.70
71564;BMP180;59391;52.504;13.438;2023-12-20T00:04:43;100507.00;;;10.70
71564;BMP180;59391;52.504;13.438;2023-12-20T00:07:08;100501.00;;;10.80
71564;BMP180;59391;52.504;13.438;2023-12-20T00:09:34;100501.00;;;10.80
71564;BMP180;59391;52.504;13.438;2023-12-20T00:12:00;100504.00;;;10.80
71564;BMP180;59391;52.504;13.438;2023-12-20T00:14:25;100508.00;;;10.80
71564;BMP180;59391;52.504;13.438;2023-12-20T00:16:51;100495.00;;;10.80
71564;BMP180;59391;52.504;13.438;2023-12-20T00:19:16;100485.00;;;10.70
71564;BMP180;59391;52.504;13.438;2023-12-20T00:21:42;100487.00;;;10.80
71564;BMP180;59391;52.504;13.438;2023-12-20T00:24:08;100481.00;;;10.80
71564;BMP180;59391;52.504;13.438;2023-12-20T00:26:33;100483.00;;;10.80
71564;BMP180;59391;52.504;13.438;2023-12-20T00:28:59;100484.00;;;10.80
71564;BMP180;59391;52.504;13.438;2023-12-20T00:31:25;100469.00;;;10.80
71564;BMP180;59391;52.504;13.438;2023-12-20T00:33:50;100474.00;;;10.80
71564;BMP180;59391;52.504;13.438;2023-12-20T00:36:16;100479.00;;;10.80
71564;BMP180;59391;52.504;13.438;2023-12-20T00:38:42;100471.00;;;10.80
71564;BMP180;59391;52.504;13.438;2023-12-20T00:41:07;100473.00;;;10.80
71564;BMP180;59391;52.504;13.438;2023-12-20T00:43:33;100477.00;;;10.80
71564;BMP180;59391;52.504;13.438;2023-12-20T00:45:58;100467.00;;;10.80
71564;BMP180;59391;52.504;13.438;2023-12-20T00:48:25;100481.00;;;10.70
71564;BMP180;59391;52.504;13.438;2023-12-20T00:50:52;100476.00;;;10.80
71564;BMP180;59391;52.504;13.438;2023-12-20T00:53:18;100476.00;;;10.80
71564;BMP180;59391;52.504;13.438;2023-12-20T00:55:45;100475.00;;;10.80
71564;BMP180;59391;52.504;13.438;2023-12-20T00:58:10;100464.00;;;10.80
71564;BMP180;59391;52.504;13.438;2023-12-20T01:00:36;100455.00;;;10.80
71564;BMP180;59391;52.504;13.438;2023-12-20T01:03:02;100479.00;;;10.90
71564;BMP180;59391;52.504;13.438;2023-12-20T01:05:27;100474.00;;;10.80
71564;BMP180;59391;52.504;13.438;2023-12-20T01:07:53;100483.00;;;10.80
71564;BMP180;59391;52.504;13.438;2023-12-20T01:10:22;100423.00;;;10.80
71564;BMP180;59391;52.504;13.438;2023-12-20T01:13:11;100498.00;;;10.70
71564;BMP180;59391;52.504;13.438;2023-12-20T01:16:02;100496.00;;;10.70
71564;BMP180;59391;52.504;13.438;2023-12-20T01:18:42;100487.00;;;10.80
71564;BMP180;59391;52.504;13.438;2023-12-20T01:21:34;100487.00;;;10.70
71564;BMP180;59391;52.504;13.438;2023-12-20T01:24:09;100496.00;;;10.80
71564;BMP180;59391;52.504;13.438;2023-12-20T01:29:34;100441.00;;;10.80
71564;BMP180;59391;52.504;13.438;2023-12-20T01:32:08;100465.00;;;10.70
71564;BMP180;59391;52.504;13.438;2023-12-20T01:34:50;100491.00;;;10.80
71564;BMP180;59391;52.504;13.438;2023-12-20T01:37:27;100464.00;;;10.70
71564;BMP180;59391;52.504;13.438;2023-12-20T01:40:06;100448.00;;;10.70
71564;BMP180;59391;52.504;13.438;2023-12-20T01:42:58;100491.00;;;10.80
71564;BMP180;59391;52.504;13.438;2023-12-20T01:45:34;100494.00;;;10.80
71564;BMP180;59391;52.504;13.438;2023-12-20T01:48:28;100483.00;;;10.90
71564;BMP180;59391;52.504;13.438;2023-12-20T01:51:09;100480.00;;;10.60
71564;BMP180;59391;52.504;13.438;2023-12-20T01:53:44;100396.00;;;10.80
71564;BMP180;59391;52.504;13.438;2023-12-20T01:56:11;100485.00;;;10.80
71564;BMP180;59391;52.504;13.438;2023-12-20T01:58:47;100476.00;;;10.90
71564;BMP180;59391;52.504;13.438;2023-12-20T02:01:14;100485.00;;;10.90
71564;BMP180;59391;52.504;13.438;2023-12-20T02:03:53;100459.00;;;10.90
71564;BMP180;59391;52.504;13.438;2023-12-20T02:06:28;100461.00;;;10.90
71564;BMP180;59391;52.504;13.438;2023-12-20T02:09:10;100458.00;;;11.00
71564;BMP180;59391;52.504;13.438;2023-12-20T02:11:39;100421.00;;;11.00
71564;BMP180;59391;52.504;13.438;2023-12-20T02:14:18;100419.00;;;11.00
71564;BMP180;59391;52.504;13.438;2023-12-20T02:16:50;100402.00;;;11.00
71564;BMP180;59391;52.504;13.438;2023-12-20T02:19:34;100454.00;;;10.90
71564;BMP180;59391;52.504;13.438;2023-12-20T02:22:11;100471.00;;;10.90
71564;BMP180;59391;52.504;13.438;2023-12-20T02:24:38;100444.00;;;10.90
71564;BMP180;59391;52.504;13.438;2023-12-20T02:27:09;100450.00;;;10.90
71564;BMP180;59391;52.504;13.438;2023-12-20T02:29:42;100434.00;;;10.90
71564;BMP180;59391;52.504;13.438;2023-12-20T02:32:13;100430.00;;;10.90
71564;BMP180;59391;52.504;13.438;2023-12-20T02:34:38;100389.00;;;10.90
71564;BMP180;59391;52.504;13.438;2023-12-20T02:37:15;100463.00;;;10.80
71564;BMP180;59391;52.504;13.438;2023-12-20T02:39:55;100422.00;;;10.60
71564;BMP180;59391;52.504;13.438;2023-12-20T02:42:24;100403.00;;;10.90
71564;BMP180;59391;52.504;13.438;2023-12-20T02:44:57;100452.00;;;10.80
71564;BMP180;59391;52.504;13.438;2023-12-20T02:47:28;100445.00;;;10.50
71564;BMP180;59391;52.504;13.438;2023-12-20T02:49:56;100439.00;;;10.90
71564;BMP180;59391;52.504;13.438;2023-12-20T02:52:28;100403.00;;;10.70
71564;BMP180;59391;52.504;13.438;2023-12-20T02:54:57;100383.00;;;10.70
71564;BMP180;59391;52.504;13.438;2023-12-20T02:57:26;100430.00;;;10.90
71564;BMP180;59391;52.504;13.438;2023-12-20T03:00:04;100421.00;;;10.90
71564;BMP180;59391;52.504;13.438;2023-12-20T03:02:30;100448.00;;;10.70
71564;BMP180;59391;52.504;13.438;2023-12-20T03:05:02;100418.00;;;10.90
71564;BMP180;59391;52.504;13.438;2023-12-20T03:07:33;100458.00;;;10.80
71564;BMP180;59391;52.504;13.438;2023-12-20T03:09:59;100404.00;;;10.90
71564;BMP180;59391;52.504;13.438;2023-12-20T03:12:46;100463.00;;;10.80
71564;BMP180;59391;52.504;13.438;2023-12-20T03:15:12;100468.00;;;10.90
71564;BMP180;59391;52.504;13.438;2023-12-20T03:17:40;100405.00;;;10.70
71564;BMP180;59391;52.504;13.438;2023-12-20T03:20:14;100404.00;;;10.90
71564;BMP180;59391;52.504;13.438;2023-12-20T03:22:43;100385.00;;;10.70
71564;BMP180;59391;52.504;13.438;2023-12-20T03:25:13;100495.00;;;10.90
71564;BMP180;59391;52.504;13.438;2023-12-20T03:27:39;100424.00;;;10.80
71564;BMP180;59391;52.504;13.438;2023-12-20T03:30:05;100424.00;;;10.80
71564;BMP180;59391;52.504;13.438;2023-12-20T03:32:50;100462.00;;;10.80
71564;BMP180;59391;52.504;13.438;2023-12-20T03:35:26;100468.00;;;10.80
71564;BMP180;59391;52.504;13.438;2023-12-20T03:37:57;100424.00;;;10.80
71564;BMP180;59391;52.504;13.438;2023-12-20T03:40:29;100449.00;;;10.70
71564;BMP180;59391;52.504;13.438;2023-12-20T03:43:00;100459.00;;;10.70
71564;BMP180;59391;52.504;13.438;2023-12-20T03:45:28;100429.00;;;10.70
71564;BMP180;59391;52.504;13.438;2023-12-20T03:48:00;100479.00;;;10.70
71564;BMP180;59391;52.504;13.438;2023-12-20T03:50:38;100472.00;;;10.70
71564;BMP180;59391;52.504;13.438;2023-12-20T03:53:15;100444.00;;;10.70
71564;BMP180;59391;52.504;13.438;2023-12-20T03:55:46;100427.00;;;10.70
71564;BMP180;59391;52.504;13.438;2023-12-20T03:58:20;100406.00;;;10.70
71564;BMP180;59391;52.504;13.438;2023-12-20T04:00:46;100438.00;;;10.70
71564;BMP180;59391;52.504;13.438;2023-12-20T04:03:17;100448.00;;;10.70
71564;BMP180;59391;52.504;13.438;2023-12-20T04:05:51;100409.00;;;10.60
71564;BMP180;59391;52.504;13.438;2023-12-20T04:08:31;100419.00;;;10.60
71564;BMP180;59391;52.504;13.438;2023-12-20T04:10:57;100362.00;;;10.70
71564;BMP180;59391;52.504;13.438;2023-12-20T04:13:38;100389.00;;;10.70
71564;BMP180;59391;52.504;13.438;2023-12-20T04:16:11;100431.00;;;10.60
71564;BMP180;59391;52.504;13.438;2023-12-20T04:18:47;100425.00;;;10.60
71564;BMP180;59391;52.504;13.438;2023-12-20T04:21:41;100431.00;;;10.50
71564;BMP180;59391;52.504;13.438;2023-12-20T04:24:10;100409.00;;;10.50
71564;BMP180;59391;52.504;13.438;2023-12-20T04:26:42;100436.00;;;10.50
71564;BMP180;59391;52.504;13.438;2023-12-20T04:29:16;100439.00;;;10.30
71564;BMP180;59391;52.504;13.438;2023-12-20T04:32:01;100409.00;;;10.50
71564;BMP180;59391;52.504;13.438;2023-12-20T04:34:47;100433.00;;;10.50
71564;BMP180;59391;52.504;13.438;2023-12-20T04:37:29;100369.00;;;10.30
71564;BMP180;59391;52.504;13.438;2023-12-20T04:40:04;100396.00;;;10.40
71564;BMP180;59391;52.504;13.438;2023-12-20T04:42:41;100393.00;;;10.40
71564;BMP180;59391;52.504;13.438;2023-12-20T04:45:15;100434.00;;;10.40
71564;BMP180;59391;52.504;13.438;2023-12-20T04:47:54;100431.00;;;10.30
71564;BMP180;59391;52.504;13.438;2023-12-20T04:50:29;100438.00;;;10.30
71564;BMP180;59391;52.504;13.438;2023-12-20T04:53:21;100432.00;;;10.20
71564;BMP180;59391;52.504;13.438;2023-12-20T04:56:06;100352.00;;;10.20
71564;BMP180;59391;52.504;13.438;2023-12-20T04:58:37;100424.00;;;10.30
71564;BMP180;59391;52.504;13.438;2023-12-20T05:01:22;100431.00;;;10.20
71564;BMP180;59391;52.504;13.438;2023-12-20T05:04:09;100381.00;;;10.20
71564;BMP180;59391;52.504;13.438;2023-12-20T05:07:28;100419.00;;;10.20
71564;BMP180;59391;52.504;13.438;2023-12-20T05:10:03;100410.00;;;10.20
71564;BMP180;59391;52.504;13.438;2023-12-20T05:12:47;100404.00;;;10.20
71564;BMP180;59391;52.504;13.438;2023-12-20T05:15:58;100417.00;;;10.30
71564;BMP180;59391;52.504;13.438;2023-12-20T05:18:44;100345.00;;;10.20
71564;BMP180;59391;52.504;13.438;2023-12-20T05:21:25;100436.00;;;10.20
71564;BMP180;59391;52.504;13.438;2023-12-20T05:24:09;100376.00;;;10.20
71564;BMP180;59391;52.504;13.438;2023-12-20T05:26:46;100434.00;;;10.10
71564;BMP180;59391;52.504;13.438;2023-12-20T05:29:12;100444.00;;;10.10
71564;BMP180;59391;52.504;13.438;2023-12-20T05:31:38;100433.00;;;10.10
71564;BMP180;59391;52.504;13.438;2023-12-20T05:34:24;100402.00;;;10.10
71564;BMP180;59391;52.504;13.438;2023-12-20T05:37:11;100451.00;;;10.00
71564;BMP180;59391;52.504;13.438;2023-12-20T05:39:42;100407.00;;;9.80
71564;BMP180;59391;52.504;13.438;2023-12-20T05:42:08;100399.00;;;10.00
71564;BMP180;59391;52.504;13.438;2023-12-20T05:44:43;100432.00;;;10.00
71564;BMP180;59391;52.504;13.438;2023-12-20T05:47:16;100437.00;;;9.90
71564;BMP180;59391;52.504;13.438;2023-12-20T05:49:51;100441.00;;;9.90
71564;BMP180;59391;52.504;13.438;2023-12-20T05:52:22;100361.00;;;9.90
71564;BMP180;59391;52.504;13.438;2023-12-20T05:54:54;100406.00;;;9.80
71564;BMP180;59391;52.504;13.438;2023-12-20T05:57:29;100427.00;;;9.60
71564;BMP180;59391;52.504;13.438;2023-12-20T06:00:21;100425.00;;;9.80
71564;BMP180;59391;52.504;13.438;2023-12-20T06:03:00;100371.00;;;9.80
71564;BMP180;59391;52.504;13.438;2023-12-20T06:05:35;100375.00;;;9.80
71564;BMP180;59391;52.504;13.438;2023-12-20T06:08:18;100427.00;;;9.80
71564;BMP180;59391;52.504;13.438;2023-12-20T06:10:53;100336.00;;;9.70
71564;BMP180;59391;52.504;13.438;2023-12-20T06:13:22;100398.00;;;9.80
71564;BMP180;59391;52.504;13.438;2023-12-20T06:15:51;100357.00;;;9.80
71564;BMP180;59391;52.504;13.438;2023-12-20T06:18:25;100421.00;;;9.80
71564;BMP180;59391;52.504;13.438;2023-12-20T06:20:55;100414.00;;;9.80
71564;BMP180;59391;52.504;13.438;2023-12-20T06:23:20;100409.00;;;9.70
71564;BMP180;59391;52.504;13.438;2023-12-20T06:25:49;100422.00;;;9.60
71564;BMP180;59391;52.504;13.438;2023-12-20T06:28:29;100305.00;;;9.70
71564;BMP180;59391;52.504;13.438;2023-12-20T06:31:21;100406.00;;;9.60
71564;BMP180;59391;52.504;13.438;2023-12-20T06:33:50;100370.00;;;9.70
71564;BMP180;59391;52.504;13.438;2023-12-20T06:36:28;100412.00;;;9.50
71564;BMP180;59391;52.504;13.438;2023-12-20T06:38:54;100413.00;;;9.70
71564;BMP180;59391;52.504;13.438;2023-12-20T06:41:20;100416.00;;;9.70
71564;BMP180;59391;52.504;13.438;2023-12-20T06:43:45;100422.00;;;9.70
71564;BMP180;59391;52.504;13.438;2023-12-20T06:46:14;100402.00;;;9.70
71564;BMP180;59391;52.504;13.438;2023-12-20T06:48:39;100388.00;;;9.70
71564;BMP180;59391;52.504;13.438;2023-12-20T06:51:06;100402.00;;;9.70
71564;BMP180;59391;52.504;13.438;2023-12-20T06:53:32;100405.00;;;9.70
71564;BMP180;59391;52.504;13.438;2023-12-20T06:56:03;100397.00;;;9.60
71564;BMP180;59391;52.504;13.438;2023-12-20T06:58:32;100376.00;;;9.70
71564;BMP180;59391;52.504;13.438;2023-12-20T07:00:58;100408.00;;;9.70
71564;BMP180;59391;52.504;13.438;2023-12-20T07:03:29;100414.00;;;9.70
71564;BMP180;59391;52.504;13.438;2023-12-20T07:05:57;100390.00;;;9.70
71564;BMP180;59391;52.504;13.438;2023-12-20T07:08:23;100374.00;;;9.70
71564;BMP180;59391;52.504;13.438;2023-12-20T07:10:49;100382.00;;;9.50
71564;BMP180;59391;52.504;13.438;2023-12-20T07:13:15;100408.00;;;9.40
71564;BMP180;59391;52.504;13.438;2023-12-20T07:15:41;100412.00;;;9.70
71564;BMP180;59391;52.504;13.438;2023-12-20T07:18:06;100413.00;;;9.70
71564;BMP180;59391;52.504;13.438;2023-12-20T07:20:32;100399.00;;;9.70
71564;BMP180;59391;52.504;13.438;2023-12-20T07:22:58;100390.00;;;9.70
71564;BMP180;59391;52.504;13.438;2023-12-20T07:25:29;100344.00;;;9.70
71564;BMP180;59391;52.504;13.438;2023-12-20T07:28:14;100372.00;;;9.60
71564;BMP180;59391;52.504;13.438;2023-12-20T07:31:12;100400.00;;;9.70
71564;BMP180;59391;52.504;13.438;2023-12-20T07:34:03;100390.00;;;9.70
71564;BMP180;59391;52.504;13.438;2023-12-20T07:36:45;100392.00;;;9.60
71564;BMP180;59391;52.504;13.438;2023-12-20T07:39:13;100388.00;;;9.70
71564;BMP180;59391;52.504;13.438;2023-12-20T07:41:51;100406.00;;;9.60
71564;BMP180;59391;52.504;13.438;2023-12-20T07:44:25;100325.00;;;9.80
71564;BMP180;59391;52.504;13.438;2023-12-20T07:46:51;100382.00;;;9.70
71564;BMP180;59391;52.504;13.438;2023-12-20T07:49:18;100333.00;;;9.70
71564;BMP180;59391;52.504;13.438;2023-12-20T07:51:44;100382.00;;;9.70
71564;BMP180;59391;52.504;13.438;2023-12-20T07:54:10;100375.00;;;9.80
71564;BMP180;59391;52.504;13.438;2023-12-20T07:56:37;100352.00;;;9.80
71564;BMP180;59391;52.504;13.438;2023-12-20T07:59:03;100396.00;;;9.70
71564;BMP180;59391;52.504;13.438;2023-12-20T08:01:29;100372.00;;;9.80
71564;BMP180;59391;52.504;13.438;2023-12-20T08:04:10;100348.00;;;9.80
71564;BMP180;59391;52.504;13.438;2023-12-20T08:06:38;100403.00;;;9.60
71564;BMP180;59391;52.504;13.438;2023-12-20T08:09:09;100372.00;;;9.70
71564;BMP180;59391;52.504;13.438;2023-12-20T08:11:36;100375.00;;;9.50
71564;BMP180;59391;52.504;13.438;2023-12-20T08:14:01;100409.00;;;9.70
71564;BMP180;59391;52.504;13.438;2023-12-20T08:17:12;100334.00;;;9.80
71564;BMP180;59391;52.504;13.438;2023-12-20T08:19:45;100356.00;;;9.90
71564;BMP180;59391;52.504;13.438;2023-12-20T08:22:11;100419.00;;;9.70
71564;BMP180;59391;52.504;13.438;2023-12-20T08:24:37;100306.00;;;9.80
71564;BMP180;59391;52.504;13.438;2023-12-20T08:27:04;100365.00;;;9.70
71564;BMP180;59391;52.504;13.438;2023-12-20T08:29:35;100397.00;;;9.70
71564;BMP180;59391;52.504;13.438;2023-12-20T08:32:04;100353.00;;;9.70
71564;BMP180;59391;52.504;13.438;2023-12-20T08:34:34;100390.00;;;9.70
71564;BMP180;59391;52.504;13.438;2023-12-20T08:40:48;100314.00;;;9.70
71564;BMP180;59391;52.504;13.438;2023-12-20T08:43:14;100348.00;;;9.80
71564;BMP180;59391;52.504;13.438;2023-12-20T08:45:40;100398.00;;;9.80
71564;BMP180;59391;52.504;13.438;2023-12-20T08:48:06;100345.00;;;9.90
71564;BMP180;59391;52.504;13.438;2023-12-20T08:50:34;100335.00;;;9.90
71564;BMP180;59391;52.504;13.438;2023-12-20T08:53:00;100377.00;;;10.00
71564;BMP180;59391;52.504;13.438;2023-12-20T08:55:26;100386.00;;;10.00
71564;BMP180;59391;52.504;13.438;2023-12-20T08:57:53;100365.00;;;10.00
71564;BMP180;59391;52.504;13.438;2023-12-20T09:00:19;100363.00;;;10.10
71564;BMP180;59391;52.504;13.438;2023-12-20T09:02:46;100344.00;;;10.20
71564;BMP180;59391;52.504;13.438;2023-12-20T09:05:11;100345.00;;;10.20
71564;BMP180;59391;52.504;13.438;2023-12-20T09:07:37;100339.00;;;10.30
71564;BMP180;59391;52.504;13.438;2023-12-20T09:10:03;100331.00;;;10.20
71564;BMP180;59391;52.504;13.438;2023-12-20T09:12:29;100357.00;;;10.30
71564;BMP180;59391;52.504;13.438;2023-12-20T09:14:54;100366.00;;;10.30
71564;BMP180;59391;52.504;13.438;2023-12-20T09:17:20;100361.00;;;10.40
71564;BMP180;59391;52.504;13.438;2023-12-20T09:19:48;100368.00;;;10.40
71564;BMP180;59391;52.504;13.438;2023-12-20T09:22:14;100365.00;;;10.40
71564;BMP180;59391;52.504;13.438;2023-12-20T09:24:39;100365.00;;;10.30
71564;BMP180;59391;52.504;13.438;2023-12-20T09:27:05;100355.00;;;10.30
71564;BMP180;59391;52.504;13.438;2023-12-20T09:29:31;100338.00;;;10.40
71564;BMP180;59391;52.504;13.438;2023-12-20T09:31:57;100349.00;;;10.20
71564;BMP180;59391;52.504;13.438;2023-12-20T09:34:23;100359.00;;;10.30
71564;BMP180;59391;52.504;13.438;2023-12-20T09:36:49;100353.00;;;10.20
71564;BMP180;59391;52.504;13.438;2023-12-20T09:39:18;100344.00;;;10.20
71564;BMP180;59391;52.504;13.438;2023-12-20T09:42:03;100345.00;;;10.20
71564;BMP180;59391;52.504;13.438;2023-12-20T09:44:30;100340.00;;;10.20
71564;BMP180;59391;52.504;13.438;2023-12-20T09:47:03;100353.00;;;10.10
71564;BMP180;59391;52.504;13.438;2023-12-20T09:49:30;100341.00;;;10.10
71564;BMP180;59391;52.504;13.438;2023-12-20T09:51:56;100345.00;;;10.10
71564;BMP180;59391;52.504;13.438;2023-12-20T09:54:23;100348.00;;;10.10
71564;BMP180;59391;52.504;13.438;2023-12-20T09:56:50;100348.00;;;10.10
71564;BMP180;59391;52.504;13.438;2023-12-20T09:59:16;100355.00;;;9.90
71564;BMP180;59391;52.504;13.438;2023-12-20T10:01:43;100358.00;;;10.00
71564;BMP180;59391;52.504;13.438;2023-12-20T10:04:10;100355.00;;;10.10
71564;BMP180;59391;52.504;13.438;2023-12-20T10:06:40;100335.00;;;10.00
71564;BMP180;59391;52.504;13.438;2023-12-20T10:09:05;100324.00;;;10.10
71564;BMP180;59391;52.504;13.438;2023-12-20T10:11:32;100301.00;;;10.10
71564;BMP180;59391;52.504;13.438;2023-12-20T10:14:04;100301.00;;;10.20
71564;BMP180;59391;52.504;13.438;2023-12-20T10:16:31;100295.00;;;10.20
71564;BMP180;59391;52.504;13.438;2023-12-20T10:18:58;100301.00;;;10.30
71564;BMP180;59391;52.504;13.438;2023-12-20T10:21:25;100299.00;;;10.40
71564;BMP180;59391;52.504;13.438;2023-12-20T10:23:53;100281.00;;;10.40
71564;BMP180;59391;52.504;13.438;2023-12-20T10:26:24;100293.00;;;10.40
71564;BMP180;59391;52.504;13.438;2023-12-20T10:28:55;100288.00;;;10.50
71564;BMP180;59391;52.504;13.438;2023-12-20T10:31:33;100289.00;;;10.50
71564;BMP180;59391;52.504;13.438;2023-12-20T10:34:01;100279.00;;;10.60
71564;BMP180;59391;52.504;13.438;2023-12-20T10:36:31;100278.00;;;10.50
71564;BMP180;59391;52.504;13.438;2023-12-20T10:38:58;100276.00;;;10.60
71564;BMP180;59391;52.504;13.438;2023-12-20T10:41:29;100258.00;;;10.50
71564;BMP180;59391;52.504;13.438;2023-12-20T10:44:04;100257.00;;;10.30
71564;BMP180;59391;52.504;13.438;2023-12-20T10:49:14;100237.00;;;10.30
71564;BMP180;59391;52.504;13.438;2023-12-20T10:51:40;100244.00;;;10.30
71564;BMP180;59391;52.504;13.438;2023-12-20T10:54:06;100256.00;;;10.40
71564;BMP180;59391;52.504;13.438;2023-12-20T10:56:35;100246.00;;;10.30
71564;BMP180;59391;52.504;13.438;2023-12-20T10:59:02;100261.00;;;10.50
71564;BMP180;59391;52.504;13.438;2023-12-20T11:01:31;100236.00;;;10.50
71564;BMP180;59391;52.504;13.438;2023-12-20T11:03:58;100232.00;;;10.30
71564;BMP180;59391;52.504;13.438;2023-12-20T11:06:50;100226.00;;;10.50
71564;BMP180;59391;52.504;13.438;2023-12-20T11:09:26;100214.00;;;10.60
71564;BMP180;59391;52.504;13.438;2023-12-20T11:14:53;100231.00;;;10.20
71564;BMP180;59391;52.504;13.438;2023-12-20T11:17:26;100214.00;;;10.20
71564;BMP180;59391;52.504;13.438;2023-12-20T11:22:26;100195.00;;;9.80
71564;BMP180;59391;52.504;13.438;2023-12-20T11:24:53;100199.00;;;9.80
71564;BMP180;59391;52.504;13.438;2023-12-20T11:27:20;100194.00;;;9.90
71564;BMP180;59391;52.504;13.438;2023-12-20T11:29:53;100176.00;;;9.70
71564;BMP180;59391;52.504;13.438;2023-12-20T11:34:59;100179.00;;;9.70
71564;BMP180;59391;52.504;13.438;2023-12-20T11:37:35;100178.00;;;9.60
71564;BMP180;59391;52.504;13.438;2023-12-20T11:40:22;100168.00;;;9.70
71564;BMP180;59391;52.504;13.438;2023-12-20T11:42:51;100172.00;;;9.50
71564;BMP180;59391;52.504;13.438;2023-12-20T11:45:23;100158.00;;;9.50
71564;BMP180;59391;52.504;13.438;2023-12-20T11:47:51;100148.00;;;9.60
71564;BMP180;59391;52.504;13.438;2023-12-20T11:50:18;100149.00;;;9.70
71564;BMP180;59391;52.504;13.438;2023-12-20T11:52:44;100148.00;;;9.40
71564;BMP180;59391;52.504;13.438;2023-12-20T11:55:09;100154.00;;;9.40
71564;BMP180;59391;52.504;13.438;2023-12-20T11:57:36;100143.00;;;9.40
71564;BMP180;59391;52.504;13.438;2023-12-20T12:00:03;100141.00;;;9.40
71564;BMP180;59391;52.504;13.438;2023-12-20T12:02:30;100161.00;;;9.20
71564;BMP180;59391;52.504;13.438;2023-12-20T12:04:56;100117.00;;;9.50
71564;BMP180;59391;52.504;13.438;2023-12-20T12:07:22;100117.00;;;9.60
71564;BMP180;59391;52.504;13.438;2023-12-20T12:09:48;100093.00;;;9.70
71564;BMP180;59391;52.504;13.438;2023-12-20T12:12:14;100094.00;;;9.70
71564;BMP180;59391;52.504;13.438;2023-12-20T12:14:40;100097.00;;;9.70
71564;BMP180;59391;52.504;13.438;2023-12-20T12:17:15;100083.00;;;9.70
71564;BMP180;59391;52.504;13.438;2023-12-20T12:19:41;100076.00;;;9.90
71564;BMP180;59391;52.504;13.438;2023-12-20T12:22:09;100073.00;;;9.80
71564;BMP180;59391;52.504;13.438;2023-12-20T12:24:40;100082.00;;;9.90
71564;BMP180;59391;52.504;13.438;2023-12-20T12:27:07;100065.00;;;9.90
71564;BMP180;59391;52.504;13.438;2023-12-20T12:29:34;100056.00;;;9.90
71564;BMP180;59391;52.504;13.438;2023-12-20T12:32:00;100056.00;;;9.60
71564;BMP180;59391;52.504;13.438;2023-12-20T12:34:29;100054.00;;;9.40
71564;BMP180;59391;52.504;13.438;2023-12-20T12:36:56;100045.00;;;9.60
71564;BMP180;59391;52.504;13.438;2023-12-20T12:39:23;100046.00;;;9.70
71564;BMP180;59391;52.504;13.438;2023-12-20T12:41:53;100043.00;;;9.70
71564;BMP180;59391;52.504;13.438;2023-12-20T12:44:19;100033.00;;;9.70
71564;BMP180;59391;52.504;13.438;2023-12-20T12:46:48;100037.00;;;9.60
71564;BMP180;59391;52.504;13.438;2023-12-20T12:49:16;100023.00;;;9.60
71564;BMP180;59391;52.504;13.438;2023-12-20T12:51:43;100034.00;;;9.60
71564;BMP180;59391;52.504;13.438;2023-12-20T12:54:09;100011.00;;;9.60
71564;BMP180;59391;52.504;13.438;2023-12-20T12:56:36;100001.00;;;9.60
71564;BMP180;59391;52.504;13.438;2023-12-20T12:59:02;100032.00;;;9.50
71564;BMP180;59391;52.504;13.438;2023-12-20T13:01:28;100019.00;;;9.50
71564;BMP180;59391;52.504;13.438;2023-12-20T13:03:53;100016.00;;;9.40
71564;BMP180;59391;52.504;13.438;2023-12-20T13:06:20;100025.00;;;9.40
71564;BMP180;59391;52.504;13.438;2023-12-20T13:08:45;100010.00;;;9.40
71564;BMP180;59391;52.504;13.438;2023-12-20T13:11:11;100019.00;;;9.50
71564;BMP180;59391;52.504;13.438;2023-12-20T13:13:37;100013.00;;;9.40
71564;BMP180;59391;52.504;13.438;2023-12-20T13:16:03;100022.00;;;9.50
71564;BMP180;59391;52.504;13.438;2023-12-20T13:18:28;100048.00;;;9.50
71564;BMP180;59391;52.504;13.438;2023-12-20T13:20:54;100055.00;;;9.50
71564;BMP180;59391;52.504;13.438;2023-12-20T13:23:20;100093.00;;;9.40
71564;BMP180;59391;52.504;13.438;2023-12-20T13:25:46;100094.00;;;9.50
71564;BMP180;59391;52.504;13.438;2023-12-20T13:28:12;100124.00;;;9.50
71564;BMP180;59391;52.504;13.438;2023-12-20T13:30:39;100119.00;;;9.40
71564;BMP180;59391;52.504;13.438;2023-12-20T13:33:05;100102.00;;;9.40
71564;BMP180;59391;52.504;13.438;2023-12-20T13:35:32;100107.00;;;9.20
71564;BMP180;59391;52.504;13.438;2023-12-20T13:37:59;100074.00;;;9.20
71564;BMP180;59391;52.504;13.438;2023-12-20T13:40:25;100048.00;;;9.20
71564;BMP180;59391;52.504;13.438;2023-12-20T13:42:50;100042.00;;;9.10
71564;BMP180;59391;52.504;13.438;2023-12-20T13:45:16;100031.00;;;9.10
71564;BMP180;59391;52.504;13.438;2023-12-20T13:47:42;100064.00;;;9.10
71564;BMP180;59391;52.504;13.438;2023-12-20T13:50:08;100036.00;;;9.00
71564;BMP180;59391;52.504;13.438;2023-12-20T13:52:33;100028.00;;;9.00
71564;BMP180;59391;52.504;13.438;2023-12-20T13:54:59;100057.00;;;9.00
71564;BMP180;59391;52.504;13.438;2023-12-20T13:57:25;100040.00;;;8.90
71564;BMP180;59391;52.504;13.438;2023-12-20T13:59:50;100043.00;;;8.90
71564;BMP180;59391;52.504;13.438;2023-12-20T14:02:16;100060.00;;;9.00
71564;BMP180;59391;52.504;13.438;2023-12-20T14:04:42;100055.00;;;8.90
71564;BMP180;59391;52.504;13.438;2023-12-20T14:07:10;100070.00;;;8.90
71564;BMP180;59391;52.504;13.438;2023-12-20T14:09:36;100074.00;;;8.90
71564;BMP180;59391;52.504;13.438;2023-12-20T14:12:02;100068.00;;;8.90
71564;BMP180;59391;52.504;13.438;2023-12-20T14:14:27;100080.00;;;8.90
71564;BMP180;59391;52.504;13.438;2023-12-20T14:16:53;100083.00;;;8.90
71564;BMP180;59391;52.504;13.438;2023-12-20T14:19:19;100095.00;;;9.00
71564;BMP180;59391;52.504;13.438;2023-12-20T14:21:45;100091.00;;;9.00
71564;BMP180;59391;52.504;13.438;2023-12-20T14:24:13;100118.00;;;9.00
71564;BMP180;59391;52.504;13.438;2023-12-20T14:26:41;100112.00;;;9.00
71564;BMP180;59391;52.504;13.438;2023-12-20T14:29:07;100116.00;;;9.00